sensor_id;sensor_type;location;lat;lon;timestamp;pressure;altitude;pressure_sealevel;temperature;humidity
61908;BME280;47864;52.526;19.672;2023-02-18T00:01:49;99886.13;;;6.87;100.00
61908;BME280;47864;52.526;19.672;2023-02-18T00:03:52;99846.72;;;6.85;100.00
61908;BME280;47864;52.526;19.672;2023-02-18T00:05:54;99877.00;;;6.81;100.00
61908;BME280;47864;52.526;19.672;2023-02-18T00:07:55;99874.66;;;6.78;100.00
61908;BME280;47864;52.526;19.672;2023-02-18T00:09:57;99881.47;;;6.71;100.00
61908;BME280;47864;52.526;19.672;2023-02-18T00:11:58;99890.22;;;6.72;100.00
61908;BME280;47864;52.526;19.672;2023-02-18T00:14:01;99873.47;;;6.63;100.00
61908;BME280;47864;52.526;19.672;2023-02-18T00:16:06;99882.78;;;6.58;100.00
61908;BME280;47864;52.526;19.672;2023-02-18T00:18:08;99895.97;;;6.48;100.00
61908;BME280;47864;52.526;19.672;2023-02-18T00:20:10;99904.13;;;6.55;100.00
61908;BME280;47864;52.526;19.672;2023-02-18T00:22:11;99911.91;;;6.46;100.00
61908;BME280;47864;52.526;19.672;2023-02-18T00:24:14;99904.72;;;6.39;100.00
61908;BME280;47864;52.526;19.672;2023-02-18T00:26:17;99914.16;;;6.41;100.00
61908;BME280;47864;52.526;19.672;2023-02-18T00:28:19;99912.34;;;6.42;100.00
61908;BME280;47864;52.526;19.672;2023-02-18T00:30:20;99915.25;;;6.39;100.00
61908;BME280;47864;52.526;19.672;2023-02-18T00:32:22;99915.25;;;6.48;100.00
61908;BME280;47864;52.526;19.672;2023-02-18T00:34:23;99917.56;;;6.52;100.00
61908;BME280;47864;52.526;19.672;2023-02-18T00:36:25;99916.91;;;6.49;100.00
61908;BME280;47864;52.526;19.672;2023-02-18T00:38:27;99890.44;;;6.32;100.00
61908;BME280;47864;52.526;19.672;2023-02-18T00:40:28;99933.53;;;6.50;100.00
61908;BME280;47864;52.526;19.672;2023-02-18T00:42:29;99927.00;;;6.44;100.00
61908;BME280;47864;52.526;19.672;2023-02-18T00:44:31;99899.72;;;6.26;100.00
61908;BME280;47864;52.526;19.672;2023-02-18T00:46:33;99929.13;;;6.51;100.00
61908;BME280;47864;52.526;19.672;2023-02-18T00:48:34;99928.94;;;6.52;100.00
61908;BME280;47864;52.526;19.672;2023-02-18T00:50:36;99916.34;;;6.46;100.00
61908;BME280;47864;52.526;19.672;2023-02-18T00:52:37;99904.19;;;6.26;100.00
61908;BME280;47864;52.526;19.672;2023-02-18T00:54:39;99893.50;;;6.27;100.00
61908;BME280;47864;52.526;19.672;2023-02-18T00:56:41;99916.94;;;6.30;100.00
61908;BME280;47864;52.526;19.672;2023-02-18T00:58:42;99924.97;;;6.29;100.00
61908;BME280;47864;52.526;19.672;2023-02-18T01:00:44;99908.75;;;6.24;100.00
61908;BME280;47864;52.526;19.672;2023-02-18T01:02:46;99906.38;;;6.21;100.00
61908;BME280;47864;52.526;19.672;2023-02-18T01:04:48;99917.06;;;6.19;100.00
61908;BME280;47864;52.526;19.672;2023-02-18T01:06:49;99876.06;;;6.07;100.00
61908;BME280;47864;52.526;19.672;2023-02-18T01:08:51;99898.22;;;6.14;100.00
61908;BME280;47864;52.526;19.672;2023-02-18T01:10:54;99905.44;;;6.22;100.00
61908;BME280;47864;52.526;19.672;2023-02-18T01:12:56;99906.25;;;6.22;100.00
61908;BME280;47864;52.526;19.672;2023-02-18T01:14:58;99916.94;;;6.21;100.00
61908;BME280;47864;52.526;19.672;2023-02-18T01:16:59;99904.03;;;6.27;100.00
61908;BME280;47864;52.526;19.672;2023-02-18T01:19:01;99915.97;;;6.22;100.00
61908;BME280;47864;52.526;19.672;2023-02-18T01:21:02;99902.09;;;6.20;100.00
61908;BME280;47864;52.526;19.672;2023-02-18T01:23:04;99905.28;;;6.14;100.00
61908;BME280;47864;52.526;19.672;2023-02-18T01:25:07;99901.25;;;6.09;100.00
61908;BME280;47864;52.526;19.672;2023-02-18T01:27:09;99870.38;;;6.02;100.00
61908;BME280;47864;52.526;19.672;2023-02-18T01:29:10;99913.06;;;6.15;100.00
61908;BME280;47864;52.526;19.672;2023-02-18T01:31:12;99906.41;;;6.11;100.00
61908;BME280;47864;52.526;19.672;2023-02-18T01:33:14;99912.22;;;6.05;100.00
61908;BME280;47864;52.526;19.672;2023-02-18T01:35:18;99908.75;;;6.04;100.00
61908;BME280;47864;52.526;19.672;2023-02-18T01:37:20;99903.34;;;6.06;100.00
61908;BME280;47864;52.526;19.672;2023-02-18T01:39:22;99891.84;;;5.97;100.00
61908;BME280;47864;52.526;19.672;2023-02-18T01:41:23;99905.03;;;6.07;100.00
61908;BME280;47864;52.526;19.672;2023-02-18T01:43:25;99887.56;;;6.06;100.00
61908;BME280;47864;52.526;19.672;2023-02-18T01:47:33;99908.06;;;6.12;100.00
61908;BME280;47864;52.526;19.672;2023-02-18T01:49:36;99913.31;;;6.12;100.00
61908;BME280;47864;52.526;19.672;2023-02-18T01:51:41;99897.38;;;6.04;100.00
61908;BME280;47864;52.526;19.672;2023-02-18T01:53:48;99904.31;;;6.05;100.00
61908;BME280;47864;52.526;19.672;2023-02-18T01:55:51;99884.88;;;5.87;100.00
61908;BME280;47864;52.526;19.672;2023-02-18T01:57:52;99898.50;;;5.92;100.00
61908;BME280;47864;52.526;19.672;2023-02-18T02:00:00;99903.63;;;6.03;100.00
61908;BME280;47864;52.526;19.672;2023-02-18T02:02:06;99906.13;;;6.14;100.00
61908;BME280;47864;52.526;19.672;2023-02-18T02:04:09;99917.50;;;6.05;100.00
61908;BME280;47864;52.526;19.672;2023-02-18T02:06:17;99893.22;;;6.01;100.00
61908;BME280;47864;52.526;19.672;2023-02-18T02:08:19;99884.09;;;5.96;100.00
61908;BME280;47864;52.526;19.672;2023-02-18T02:10:20;99899.19;;;6.13;100.00
61908;BME280;47864;52.526;19.672;2023-02-18T02:36:53;99919.84;;;6.18;100.00
61908;BME280;47864;52.526;19.672;2023-02-18T02:39:03;99925.25;;;6.16;100.00
61908;BME280;47864;52.526;19.672;2023-02-18T02:45:58;99924.97;;;6.09;100.00
61908;BME280;47864;52.526;19.672;2023-02-18T02:52:43;99946.03;;;5.90;100.00
61908;BME280;47864;52.526;19.672;2023-02-18T02:54:46;99925.06;;;5.79;100.00
61908;BME280;47864;52.526;19.672;2023-02-18T02:56:48;99933.53;;;5.83;100.00
61908;BME280;47864;52.526;19.672;2023-02-18T02:58:58;99935.72;;;5.78;100.00
61908;BME280;47864;52.526;19.672;2023-02-18T03:03:16;99931.97;;;5.70;100.00
61908;BME280;47864;52.526;19.672;2023-02-18T03:12:35;99953.16;;;5.59;100.00
61908;BME280;47864;52.526;19.672;2023-02-18T03:16:58;99955.78;;;5.59;100.00
61908;BME280;47864;52.526;19.672;2023-02-18T03:21:15;99965.72;;;5.56;100.00
61908;BME280;47864;52.526;19.672;2023-02-18T03:23:22;99958.25;;;5.51;100.00
61908;BME280;47864;52.526;19.672;2023-02-18T03:25:26;99939.53;;;5.35;100.00
61908;BME280;47864;52.526;19.672;2023-02-18T03:27:32;99957.69;;;5.48;100.00
61908;BME280;47864;52.526;19.672;2023-02-18T03:29:35;99955.63;;;5.51;100.00
61908;BME280;47864;52.526;19.672;2023-02-18T03:31:37;99977.03;;;5.47;100.00
61908;BME280;47864;52.526;19.672;2023-02-18T03:33:54;99982.88;;;5.50;100.00
61908;BME280;47864;52.526;19.672;2023-02-18T03:35:57;99976.91;;;5.48;100.00
61908;BME280;47864;52.526;19.672;2023-02-18T03:38:04;99986.47;;;5.49;100.00
61908;BME280;47864;52.526;19.672;2023-02-18T03:40:09;99976.75;;;5.40;100.00
61908;BME280;47864;52.526;19.672;2023-02-18T03:42:11;99968.00;;;5.30;100.00
61908;BME280;47864;52.526;19.672;2023-02-18T03:44:12;99993.50;;;5.39;100.00
61908;BME280;47864;52.526;19.672;2023-02-18T03:46:14;99988.38;;;5.38;100.00
61908;BME280;47864;52.526;19.672;2023-02-18T03:48:16;99929.53;;;4.98;100.00
61908;BME280;47864;52.526;19.672;2023-02-18T03:50:17;99969.91;;;5.18;100.00
61908;BME280;47864;52.526;19.672;2023-02-18T03:52:19;100002.63;;;5.35;100.00
61908;BME280;47864;52.526;19.672;2023-02-18T03:54:20;99989.03;;;5.30;100.00
61908;BME280;47864;52.526;19.672;2023-02-18T03:56:23;99971.09;;;5.14;100.00
61908;BME280;47864;52.526;19.672;2023-02-18T03:58:25;99978.22;;;5.23;100.00
61908;BME280;47864;52.526;19.672;2023-02-18T04:00:26;99997.69;;;5.21;100.00
61908;BME280;47864;52.526;19.672;2023-02-18T04:02:28;100004.69;;;5.31;100.00
61908;BME280;47864;52.526;19.672;2023-02-18T04:04:29;99985.38;;;5.21;100.00
61908;BME280;47864;52.526;19.672;2023-02-18T04:06:31;100002.03;;;5.31;100.00
61908;BME280;47864;52.526;19.672;2023-02-18T04:08:33;99979.97;;;5.13;100.00
61908;BME280;47864;52.526;19.672;2023-02-18T04:10:34;100000.00;;;5.35;100.00
61908;BME280;47864;52.526;19.672;2023-02-18T04:12:36;99977.19;;;5.15;100.00
61908;BME280;47864;52.526;19.672;2023-02-18T04:14:37;99989.94;;;5.19;100.00
61908;BME280;47864;52.526;19.672;2023-02-18T04:16:39;99992.97;;;5.15;100.00
61908;BME280;47864;52.526;19.672;2023-02-18T04:18:41;99948.97;;;4.86;100.00
61908;BME280;47864;52.526;19.672;2023-02-18T04:20:43;99990.69;;;5.01;100.00
61908;BME280;47864;52.526;19.672;2023-02-18T04:22:44;100024.22;;;5.08;100.00
61908;BME280;47864;52.526;19.672;2023-02-18T04:24:46;100013.81;;;5.07;100.00
61908;BME280;47864;52.526;19.672;2023-02-18T04:26:47;100020.03;;;5.06;100.00
61908;BME280;47864;52.526;19.672;2023-02-18T04:28:49;100008.44;;;5.08;100.00
61908;BME280;47864;52.526;19.672;2023-02-18T04:30:50;99995.66;;;4.94;100.00
61908;BME280;47864;52.526;19.672;2023-02-18T04:32:52;99983.31;;;4.94;100.00
61908;BME280;47864;52.526;19.672;2023-02-18T04:34:53;99999.44;;;5.11;100.00
61908;BME280;47864;52.526;19.672;2023-02-18T04:36:55;100012.94;;;4.96;100.00
61908;BME280;47864;52.526;19.672;2023-02-18T04:38:56;100016.56;;;5.05;100.00
61908;BME280;47864;52.526;19.672;2023-02-18T04:40:58;100038.06;;;5.10;100.00
61908;BME280;47864;52.526;19.672;2023-02-18T04:42:59;100004.09;;;4.97;100.00
61908;BME280;47864;52.526;19.672;2023-02-18T04:45:01;100000.69;;;5.07;100.00
61908;BME280;47864;52.526;19.672;2023-02-18T04:47:04;100007.53;;;5.19;100.00
61908;BME280;47864;52.526;19.672;2023-02-18T04:49:06;99991.72;;;5.09;100.00
61908;BME280;47864;52.526;19.672;2023-02-18T04:51:07;100008.22;;;5.21;100.00
61908;BME280;47864;52.526;19.672;2023-02-18T04:53:09;100000.16;;;5.13;100.00
61908;BME280;47864;52.526;19.672;2023-02-18T04:55:10;100015.16;;;5.22;100.00
61908;BME280;47864;52.526;19.672;2023-02-18T04:57:12;100014.63;;;5.28;100.00
61908;BME280;47864;52.526;19.672;2023-02-18T04:59:13;100018.34;;;5.25;100.00
61908;BME280;47864;52.526;19.672;2023-02-18T05:01:15;99962.28;;;4.94;100.00
61908;BME280;47864;52.526;19.672;2023-02-18T05:03:17;100017.25;;;5.28;100.00
61908;BME280;47864;52.526;19.672;2023-02-18T05:05:18;100004.97;;;5.08;100.00
61908;BME280;47864;52.526;19.672;2023-02-18T05:07:20;100016.50;;;5.16;100.00
61908;BME280;47864;52.526;19.672;2023-02-18T05:09:21;100018.84;;;5.19;100.00
61908;BME280;47864;52.526;19.672;2023-02-18T05:11:23;100014.06;;;5.24;100.00
61908;BME280;47864;52.526;19.672;2023-02-18T05:13:24;100018.72;;;5.21;100.00
61908;BME280;47864;52.526;19.672;2023-02-18T05:15:25;100001.00;;;5.13;100.00
61908;BME280;47864;52.526;19.672;2023-02-18T05:17:27;100011.50;;;5.13;100.00
61908;BME280;47864;52.526;19.672;2023-02-18T05:19:28;100017.34;;;5.17;100.00
61908;BME280;47864;52.526;19.672;2023-02-18T05:21:30;100021.91;;;5.15;100.00
61908;BME280;47864;52.526;19.672;2023-02-18T05:23:32;100019.59;;;5.01;100.00
61908;BME280;47864;52.526;19.672;2023-02-18T05:25:33;100013.06;;;4.95;100.00
61908;BME280;47864;52.526;19.672;2023-02-18T05:27:38;100026.91;;;4.97;100.00
61908;BME280;47864;52.526;19.672;2023-02-18T05:29:39;100021.16;;;4.82;100.00
61908;BME280;47864;52.526;19.672;2023-02-18T05:31:41;100034.34;;;4.92;100.00
61908;BME280;47864;52.526;19.672;2023-02-18T05:33:42;100056.00;;;5.05;100.00
61908;BME280;47864;52.526;19.672;2023-02-18T05:35:44;100054.63;;;5.01;100.00
61908;BME280;47864;52.526;19.672;2023-02-18T05:37:45;100062.28;;;5.14;100.00
61908;BME280;47864;52.526;19.672;2023-02-18T05:39:46;100064.78;;;5.15;100.00
61908;BME280;47864;52.526;19.672;2023-02-18T05:41:48;100055.53;;;5.21;100.00
61908;BME280;47864;52.526;19.672;2023-02-18T05:43:49;100042.44;;;5.30;100.00
61908;BME280;47864;52.526;19.672;2023-02-18T05:45:51;100041.44;;;5.22;100.00
61908;BME280;47864;52.526;19.672;2023-02-18T05:47:52;100059.50;;;5.36;100.00
61908;BME280;47864;52.526;19.672;2023-02-18T05:49:54;100054.75;;;5.30;100.00
61908;BME280;47864;52.526;19.672;2023-02-18T05:51:56;100053.38;;;5.26;100.00
61908;BME280;47864;52.526;19.672;2023-02-18T05:53:57;100069.59;;;5.31;100.00
61908;BME280;47864;52.526;19.672;2023-02-18T05:55:59;100052.31;;;5.38;100.00
61908;BME280;47864;52.526;19.672;2023-02-18T05:58:00;100078.63;;;5.38;100.00
61908;BME280;47864;52.526;19.672;2023-02-18T06:00:03;100067.09;;;5.29;100.00
61908;BME280;47864;52.526;19.672;2023-02-18T06:02:05;100070.28;;;5.33;100.00
61908;BME280;47864;52.526;19.672;2023-02-18T06:04:07;100089.97;;;5.39;100.00
61908;BME280;47864;52.526;19.672;2023-02-18T06:06:09;100087.28;;;5.29;100.00
61908;BME280;47864;52.526;19.672;2023-02-18T06:08:11;100089.59;;;5.43;100.00
61908;BME280;47864;52.526;19.672;2023-02-18T06:10:13;100106.53;;;5.50;100.00
61908;BME280;47864;52.526;19.672;2023-02-18T06:12:14;100102.34;;;5.48;100.00
61908;BME280;47864;52.526;19.672;2023-02-18T06:14:16;100108.44;;;5.48;100.00
61908;BME280;47864;52.526;19.672;2023-02-18T06:16:17;100092.06;;;5.45;100.00
61908;BME280;47864;52.526;19.672;2023-02-18T06:18:19;100113.13;;;5.45;100.00
61908;BME280;47864;52.526;19.672;2023-02-18T06:20:21;100102.41;;;5.36;100.00
61908;BME280;47864;52.526;19.672;2023-02-18T06:22:22;100095.47;;;5.35;100.00
61908;BME280;47864;52.526;19.672;2023-02-18T06:24:24;100128.53;;;5.49;100.00
61908;BME280;47864;52.526;19.672;2023-02-18T06:26:25;100105.13;;;5.25;100.00
61908;BME280;47864;52.526;19.672;2023-02-18T06:28:27;100103.72;;;5.42;100.00
61908;BME280;47864;52.526;19.672;2023-02-18T06:30:28;100112.81;;;5.38;100.00
61908;BME280;47864;52.526;19.672;2023-02-18T06:32:30;100129.59;;;5.47;100.00
61908;BME280;47864;52.526;19.672;2023-02-18T06:34:31;100078.13;;;5.23;100.00
61908;BME280;47864;52.526;19.672;2023-02-18T06:36:33;100090.22;;;5.35;100.00
61908;BME280;47864;52.526;19.672;2023-02-18T06:38:35;100131.72;;;5.53;100.00
61908;BME280;47864;52.526;19.672;2023-02-18T06:40:37;100117.72;;;5.52;100.00
61908;BME280;47864;52.526;19.672;2023-02-18T06:42:38;100116.19;;;5.50;100.00
61908;BME280;47864;52.526;19.672;2023-02-18T06:44:40;100132.41;;;5.55;100.00
61908;BME280;47864;52.526;19.672;2023-02-18T06:46:43;100109.09;;;5.41;100.00
61908;BME280;47864;52.526;19.672;2023-02-18T06:48:44;100135.34;;;5.52;100.00
61908;BME280;47864;52.526;19.672;2023-02-18T06:50:47;100140.31;;;5.55;100.00
61908;BME280;47864;52.526;19.672;2023-02-18T06:52:48;100133.06;;;5.47;100.00
61908;BME280;47864;52.526;19.672;2023-02-18T06:54:50;100142.09;;;5.54;100.00
61908;BME280;47864;52.526;19.672;2023-02-18T06:56:51;100144.66;;;5.65;100.00
61908;BME280;47864;52.526;19.672;2023-02-18T06:58:53;100137.69;;;5.55;100.00
61908;BME280;47864;52.526;19.672;2023-02-18T07:00:54;100146.72;;;5.62;100.00
61908;BME280;47864;52.526;19.672;2023-02-18T07:02:56;100146.72;;;5.62;100.00
61908;BME280;47864;52.526;19.672;2023-02-18T07:04:57;100121.19;;;5.53;100.00
61908;BME280;47864;52.526;19.672;2023-02-18T07:06:59;100121.00;;;5.45;100.00
61908;BME280;47864;52.526;19.672;2023-02-18T07:09:00;100140.19;;;5.56;100.00
61908;BME280;47864;52.526;19.672;2023-02-18T07:11:02;100143.97;;;5.63;100.00
61908;BME280;47864;52.526;19.672;2023-02-18T07:13:04;100148.31;;;5.74;100.00
61908;BME280;47864;52.526;19.672;2023-02-18T07:15:06;100137.38;;;5.79;100.00
61908;BME280;47864;52.526;19.672;2023-02-18T07:17:08;100142.66;;;5.79;100.00
61908;BME280;47864;52.526;19.672;2023-02-18T07:19:09;100153.63;;;5.84;100.00
61908;BME280;47864;52.526;19.672;2023-02-18T07:21:10;100121.06;;;5.54;100.00
61908;BME280;47864;52.526;19.672;2023-02-18T07:23:12;100139.59;;;5.73;100.00
61908;BME280;47864;52.526;19.672;2023-02-18T07:25:14;100160.22;;;5.78;100.00
61908;BME280;47864;52.526;19.672;2023-02-18T07:27:16;100152.75;;;5.73;100.00
61908;BME280;47864;52.526;19.672;2023-02-18T07:29:17;100163.56;;;5.80;100.00
61908;BME280;47864;52.526;19.672;2023-02-18T07:31:19;100152.75;;;5.73;100.00
61908;BME280;47864;52.526;19.672;2023-02-18T07:33:21;100158.25;;;5.70;100.00
61908;BME280;47864;52.526;19.672;2023-02-18T07:35:22;100161.06;;;5.79;100.00
61908;BME280;47864;52.526;19.672;2023-02-18T07:37:23;100153.88;;;5.81;100.00
61908;BME280;47864;52.526;19.672;2023-02-18T07:39:25;100149.53;;;5.91;100.00
61908;BME280;47864;52.526;19.672;2023-02-18T07:41:26;100145.22;;;5.90;100.00
61908;BME280;47864;52.526;19.672;2023-02-18T07:43:28;100157.72;;;5.97;100.00
61908;BME280;47864;52.526;19.672;2023-02-18T07:45:29;100152.34;;;5.99;100.00
61908;BME280;47864;52.526;19.672;2023-02-18T07:47:31;100155.56;;;5.82;100.00
61908;BME280;47864;52.526;19.672;2023-02-18T07:49:33;100116.03;;;5.93;100.00
61908;BME280;47864;52.526;19.672;2023-02-18T07:51:34;100143.50;;;6.09;100.00
61908;BME280;47864;52.526;19.672;2023-02-18T07:53:37;100149.63;;;6.20;100.00
61908;BME280;47864;52.526;19.672;2023-02-18T07:55:38;100132.06;;;5.90;100.00
61908;BME280;47864;52.526;19.672;2023-02-18T07:57:40;100166.28;;;6.20;100.00
61908;BME280;47864;52.526;19.672;2023-02-18T07:59:41;100159.66;;;6.35;99.55
61908;BME280;47864;52.526;19.672;2023-02-18T08:01:43;100165.25;;;6.42;100.00
61908;BME280;47864;52.526;19.672;2023-02-18T08:03:45;100129.19;;;5.93;98.46
61908;BME280;47864;52.526;19.672;2023-02-18T08:05:48;100164.88;;;6.16;100.00
61908;BME280;47864;52.526;19.672;2023-02-18T08:07:50;100162.53;;;6.23;99.11
61908;BME280;47864;52.526;19.672;2023-02-18T08:09:51;100162.13;;;6.27;97.54
61908;BME280;47864;52.526;19.672;2023-02-18T08:11:53;100170.19;;;6.35;99.96
61908;BME280;47864;52.526;19.672;2023-02-18T08:13:54;100170.19;;;6.35;99.47
61908;BME280;47864;52.526;19.672;2023-02-18T08:15:56;100158.53;;;6.28;99.58
61908;BME280;47864;52.526;19.672;2023-02-18T08:17:58;100180.00;;;6.24;98.63
61908;BME280;47864;52.526;19.672;2023-02-18T08:19:59;100162.13;;;6.27;100.00
61908;BME280;47864;52.526;19.672;2023-02-18T08:22:01;100166.00;;;6.23;98.62
61908;BME280;47864;52.526;19.672;2023-02-18T08:24:03;100160.75;;;6.23;99.21
61908;BME280;47864;52.526;19.672;2023-02-18T08:26:05;100164.56;;;6.09;99.53
61908;BME280;47864;52.526;19.672;2023-02-18T08:28:07;100162.25;;;6.16;99.71
61908;BME280;47864;52.526;19.672;2023-02-18T08:30:09;100168.66;;;6.23;97.36
61908;BME280;47864;52.526;19.672;2023-02-18T08:32:11;100149.09;;;6.16;97.17
61908;BME280;47864;52.526;19.672;2023-02-18T08:34:12;100167.28;;;6.29;99.04
61908;BME280;47864;52.526;19.672;2023-02-18T08:36:14;100170.97;;;6.17;97.20
61908;BME280;47864;52.526;19.672;2023-02-18T08:38:16;100178.91;;;6.26;97.28
61908;BME280;47864;52.526;19.672;2023-02-18T08:40:18;100148.69;;;6.30;97.20
61908;BME280;47864;52.526;19.672;2023-02-18T08:42:19;100151.38;;;6.59;98.20
61908;BME280;47864;52.526;19.672;2023-02-18T08:44:21;100155.69;;;6.60;95.83
61908;BME280;47864;52.526;19.672;2023-02-18T08:46:22;100143.59;;;6.38;93.79
61908;BME280;47864;52.526;19.672;2023-02-18T08:48:36;100158.22;;;6.71;95.54
61908;BME280;47864;52.526;19.672;2023-02-18T08:50:38;100164.56;;;6.69;95.92
61908;BME280;47864;52.526;19.672;2023-02-18T08:52:39;100164.31;;;6.62;96.05
61908;BME280;47864;52.526;19.672;2023-02-18T08:54:41;100177.19;;;6.56;96.19
61908;BME280;47864;52.526;19.672;2023-02-18T08:56:42;100184.28;;;6.65;96.64
61908;BME280;47864;52.526;19.672;2023-02-18T08:58:44;100173.84;;;6.54;95.30
61908;BME280;47864;52.526;19.672;2023-02-18T09:00:45;100134.16;;;6.45;96.33
61908;BME280;47864;52.526;19.672;2023-02-18T09:02:47;100156.25;;;6.64;94.67
61908;BME280;47864;52.526;19.672;2023-02-18T09:04:48;100178.31;;;6.63;95.66
61908;BME280;47864;52.526;19.672;2023-02-18T09:06:50;100171.41;;;6.81;96.13
61908;BME280;47864;52.526;19.672;2023-02-18T09:08:51;100159.75;;;6.93;93.91
61908;BME280;47864;52.526;19.672;2023-02-18T09:10:57;100167.78;;;7.01;95.22
61908;BME280;47864;52.526;19.672;2023-02-18T09:12:59;100161.84;;;6.99;92.13
61908;BME280;47864;52.526;19.672;2023-02-18T09:15:00;100169.19;;;7.05;91.04
61908;BME280;47864;52.526;19.672;2023-02-18T09:17:02;100169.91;;;7.07;91.40
61908;BME280;47864;52.526;19.672;2023-02-18T09:19:04;100165.16;;;7.01;91.97
61908;BME280;47864;52.526;19.672;2023-02-18T09:21:07;100174.34;;;6.97;92.36
61908;BME280;47864;52.526;19.672;2023-02-18T09:23:10;100176.41;;;7.03;92.94
61908;BME280;47864;52.526;19.672;2023-02-18T09:25:11;100160.03;;;6.90;90.02
61908;BME280;47864;52.526;19.672;2023-02-18T09:27:13;100149.31;;;6.53;91.44
61908;BME280;47864;52.526;19.672;2023-02-18T09:29:15;100160.31;;;6.87;92.62
61908;BME280;47864;52.526;19.672;2023-02-18T09:31:18;100159.75;;;6.93;91.21
61908;BME280;47864;52.526;19.672;2023-02-18T09:33:21;100162.94;;;6.87;91.00
61908;BME280;47864;52.526;19.672;2023-02-18T09:35:22;100166.97;;;6.81;91.93
61908;BME280;47864;52.526;19.672;2023-02-18T09:37:24;100173.50;;;6.87;93.20
61908;BME280;47864;52.526;19.672;2023-02-18T09:39:25;100169.31;;;6.84;90.25
61908;BME280;47864;52.526;19.672;2023-02-18T09:41:46;100177.50;;;6.81;92.42
61908;BME280;47864;52.526;19.672;2023-02-18T09:43:50;100175.41;;;6.75;91.28
61908;BME280;47864;52.526;19.672;2023-02-18T09:45:55;100168.03;;;6.60;92.82
61908;BME280;47864;52.526;19.672;2023-02-18T09:47:57;100148.75;;;6.49;93.25
61908;BME280;47864;52.526;19.672;2023-02-18T09:50:17;100180.41;;;6.69;92.37
61908;BME280;47864;52.526;19.672;2023-02-18T09:52:22;100170.16;;;6.66;93.83
61908;BME280;47864;52.526;19.672;2023-02-18T09:54:25;100183.19;;;6.77;95.54
61908;BME280;47864;52.526;19.672;2023-02-18T09:56:32;100177.50;;;6.81;93.93
61908;BME280;47864;52.526;19.672;2023-02-18T09:58:33;100173.44;;;6.68;96.61
61908;BME280;47864;52.526;19.672;2023-02-18T10:00:38;100181.00;;;6.82;95.03
61908;BME280;47864;52.526;19.672;2023-02-18T10:02:49;100182.81;;;6.91;95.50
61908;BME280;47864;52.526;19.672;2023-02-18T10:04:53;100200.81;;;6.76;95.76
61908;BME280;47864;52.526;19.672;2023-02-18T10:06:57;100192.75;;;6.78;94.84
61908;BME280;47864;52.526;19.672;2023-02-18T10:09:02;100192.06;;;6.66;95.70
61908;BME280;47864;52.526;19.672;2023-02-18T10:11:16;100192.75;;;6.78;96.54
61908;BME280;47864;52.526;19.672;2023-02-18T10:13:20;100182.75;;;6.62;96.63
61908;BME280;47864;52.526;19.672;2023-02-18T10:15:27;100176.06;;;6.48;94.84
61908;BME280;47864;52.526;19.672;2023-02-18T10:17:31;100203.84;;;6.62;93.95
61908;BME280;47864;52.526;19.672;2023-02-18T10:19:36;100190.53;;;6.64;94.37
61908;BME280;47864;52.526;19.672;2023-02-18T10:21:39;100144.00;;;6.43;95.72
61908;BME280;47864;52.526;19.672;2023-02-18T10:23:50;100187.50;;;6.87;96.67
61908;BME280;47864;52.526;19.672;2023-02-18T10:25:54;100192.66;;;6.89;96.28
61908;BME280;47864;52.526;19.672;2023-02-18T10:27:57;100186.63;;;6.68;95.36
61908;BME280;47864;52.526;19.672;2023-02-18T10:30:16;100203.16;;;6.70;95.46
61908;BME280;47864;52.526;19.672;2023-02-18T10:34:42;100184.44;;;6.73;95.02
61908;BME280;47864;52.526;19.672;2023-02-18T10:36:50;100193.47;;;6.80;95.82
61908;BME280;47864;52.526;19.672;2023-02-18T10:39:18;100192.19;;;6.65;95.45
61908;BME280;47864;52.526;19.672;2023-02-18T10:46:43;100183.63;;;6.82;95.17
61908;BME280;47864;52.526;19.672;2023-02-18T10:50:53;100209.72;;;6.95;95.20
61908;BME280;47864;52.526;19.672;2023-02-18T10:52:58;100197.38;;;6.95;94.10
61908;BME280;47864;52.526;19.672;2023-02-18T10:55:05;100212.22;;;6.96;95.73
61908;BME280;47864;52.526;19.672;2023-02-18T10:57:16;100204.47;;;7.23;93.97
61908;BME280;47864;52.526;19.672;2023-02-18T10:59:30;100195.84;;;7.21;92.74
61908;BME280;47864;52.526;19.672;2023-02-18T11:01:32;100186.81;;;6.95;93.65
61908;BME280;47864;52.526;19.672;2023-02-18T11:03:43;100181.41;;;7.06;93.58
61908;BME280;47864;52.526;19.672;2023-02-18T11:05:47;100171.97;;;7.13;93.27
61908;BME280;47864;52.526;19.672;2023-02-18T11:07:52;100186.53;;;7.27;91.39
61908;BME280;47864;52.526;19.672;2023-02-18T11:09:58;100188.63;;;7.14;91.10
61908;BME280;47864;52.526;19.672;2023-02-18T11:12:03;100193.34;;;7.01;93.00
61908;BME280;47864;52.526;19.672;2023-02-18T11:14:35;100187.22;;;7.10;91.28
61908;BME280;47864;52.526;19.672;2023-02-18T11:16:45;100212.22;;;6.96;93.48
61908;BME280;47864;52.526;19.672;2023-02-18T11:18:46;100190.16;;;6.97;93.66
61908;BME280;47864;52.526;19.672;2023-02-18T11:20:56;100184.19;;;7.14;93.68
61908;BME280;47864;52.526;19.672;2023-02-18T11:25:23;100153.25;;;7.07;90.97
61908;BME280;47864;52.526;19.672;2023-02-18T11:27:26;100160.84;;;7.00;87.35
61908;BME280;47864;52.526;19.672;2023-02-18T11:29:31;100157.53;;;6.98;86.15
61908;BME280;47864;52.526;19.672;2023-02-18T11:31:45;100160.47;;;7.05;88.85
61908;BME280;47864;52.526;19.672;2023-02-18T11:33:59;100176.13;;;7.35;87.13
61908;BME280;47864;52.526;19.672;2023-02-18T11:36:04;100158.34;;;7.37;88.19
61908;BME280;47864;52.526;19.672;2023-02-18T11:38:27;100170.69;;;7.56;87.48
61908;BME280;47864;52.526;19.672;2023-02-18T11:40:35;100182.47;;;7.52;85.56
61908;BME280;47864;52.526;19.672;2023-02-18T11:42:36;100127.53;;;7.09;84.54